createdAt,value
2022-08-11T00:01:16.712Z,101215.53
2022-08-11T00:03:50.868Z,101215.53
2022-08-11T00:06:27.317Z,101221.72
2022-08-11T00:08:57.455Z,101218.94
2022-08-11T00:11:36.256Z,101225.94
2022-08-11T00:14:06.994Z,101238.94
2022-08-11T00:16:39.118Z,101245.00
2022-08-11T00:19:08.890Z,101246.59
2022-08-11T00:22:04.208Z,101249.25
2022-08-11T00:24:53.411Z,101243.97
2022-08-11T00:27:23.418Z,101249.09
2022-08-11T00:29:56.694Z,101247.44
2022-08-11T00:32:29.748Z,101250.84
2022-08-11T00:35:55.088Z,101249.09
2022-08-11T00:37:52.333Z,101247.44
2022-08-11T00:40:27.830Z,101249.88
2022-08-11T00:43:03.141Z,101256.72
2022-08-11T00:45:36.737Z,101249.72
2022-08-11T00:48:17.242Z,101243.72
2022-08-11T00:50:52.785Z,101247.94
2022-08-11T00:53:42.013Z,101250.47
2022-08-11T00:56:30.161Z,101261.03
2022-08-11T00:59:35.051Z,101251.78
2022-08-11T01:02:41.141Z,101264.19
2022-08-11T01:05:40.765Z,101265.88
2022-08-11T01:08:33.474Z,101269.91
2022-08-11T01:11:31.514Z,101262.56
2022-08-11T01:14:17.357Z,101275.22
2022-08-11T01:17:37.207Z,101266.31
2022-08-11T01:20:45.826Z,101262.22
2022-08-11T01:23:31.300Z,101264.06
2022-08-11T01:26:34.264Z,101271.13
2022-08-11T01:29:29.890Z,101275.25
2022-08-11T01:32:24.386Z,101281.94
2022-08-11T01:35:34.334Z,101284.19
2022-08-11T01:38:50.890Z,101289.22
2022-08-11T01:42:11.494Z,101290.78
2022-08-11T01:45:06.987Z,101298.59
2022-08-11T01:47:54.295Z,101301.88
2022-08-11T01:50:41.357Z,101313.06
2022-08-11T01:53:21.296Z,101328.66
2022-08-11T01:55:58.004Z,101335.41
2022-08-11T01:58:43.712Z,101338.88
2022-08-11T02:01:23.500Z,101339.56
2022-08-11T02:03:57.685Z,101350.94
2022-08-11T02:06:49.567Z,101348.25
2022-08-11T02:09:26.076Z,101342.84
2022-08-11T02:11:58.359Z,101362.88
2022-08-11T02:14:32.487Z,101355.84
2022-08-11T02:17:12.177Z,101356.59
2022-08-11T02:19:59.646Z,101366.66
2022-08-11T02:22:48.659Z,101381.94
2022-08-11T02:25:24.901Z,101402.66
2022-08-11T02:28:02.037Z,101409.50
2022-08-11T02:30:36.093Z,101414.44
2022-08-11T02:33:25.453Z,101430.69
2022-08-11T02:36:02.480Z,101449.66
2022-08-11T02:38:42.069Z,101454.28
2022-08-11T02:41:27.653Z,101454.06
2022-08-11T02:44:09.816Z,101464.25
2022-08-11T02:46:51.632Z,101471.06
2022-08-11T02:49:43.533Z,101479.06
2022-08-11T02:52:29.059Z,101484.06
2022-08-11T02:55:09.210Z,101491.53
2022-08-11T02:57:46.569Z,101508.88
2022-08-11T03:00:18.488Z,101511.31
2022-08-11T03:03:17.302Z,101509.44
2022-08-11T03:06:03.902Z,101522.22
2022-08-11T03:08:51.302Z,101556.06
2022-08-11T03:11:41.690Z,101554.19
2022-08-11T03:14:30.853Z,101571.25
2022-08-11T03:17:09.286Z,101595.28
2022-08-11T03:19:49.499Z,101622.09
2022-08-11T03:22:25.060Z,101673.28
2022-08-11T03:25:00.426Z,101897.78
2022-08-11T03:27:44.766Z,101899.91
2022-08-11T03:30:17.564Z,101858.59
2022-08-11T03:33:19.903Z,101867.34
2022-08-11T03:35:57.663Z,101845.28
2022-08-11T03:38:30.539Z,101858.19
2022-08-11T03:42:04.255Z,101870.34
2022-08-11T03:44:23.767Z,101867.66
2022-08-11T03:47:09.737Z,101859.97
2022-08-11T03:49:47.198Z,101836.75
2022-08-11T03:52:29.939Z,101823.53
2022-08-11T03:55:07.603Z,101807.03
2022-08-11T03:58:09.381Z,101799.16
2022-08-11T04:01:04.718Z,101801.91
2022-08-11T04:04:00.873Z,101786.34
2022-08-11T04:06:49.047Z,101784.91
2022-08-11T04:09:57.712Z,101817.78
2022-08-11T04:13:00.139Z,101835.97
2022-08-11T04:16:11.728Z,101857.50
2022-08-11T04:19:08.897Z,101893.84
2022-08-11T04:22:17.185Z,101887.59
2022-08-11T04:25:14.534Z,101893.47
2022-08-11T04:28:10.756Z,101902.00
2022-08-11T04:31:10.155Z,101937.94
2022-08-11T04:34:02.598Z,101940.94
2022-08-11T04:37:07.874Z,101936.97
2022-08-11T04:39:51.248Z,101919.63
2022-08-11T04:43:03.226Z,101907.59
2022-08-11T04:45:45.107Z,101895.66
2022-08-11T04:49:00.391Z,101889.63
2022-08-11T04:51:55.058Z,101898.50
2022-08-11T04:54:44.509Z,101883.03
2022-08-11T04:57:34.694Z,101873.63
2022-08-11T05:00:33.366Z,101876.69
2022-08-11T05:03:32.864Z,101860.19
2022-08-11T05:06:34.769Z,101855.97
2022-08-11T05:09:25.541Z,101840.38
2022-08-11T05:12:12.951Z,101827.63
2022-08-11T05:15:00.966Z,101821.09
2022-08-11T05:17:50.923Z,101792.69
2022-08-11T05:20:37.010Z,101765.94
2022-08-11T05:23:22.345Z,101749.75
2022-08-11T05:26:09.341Z,101731.94
2022-08-11T05:29:19.687Z,101700.84
2022-08-11T05:32:11.298Z,101669.06
2022-08-11T05:34:55.568Z,101652.03
2022-08-11T05:37:36.294Z,101636.75
2022-08-11T05:40:23.401Z,101612.75
2022-08-11T05:43:06.829Z,101598.72
2022-08-11T05:45:58.631Z,101561.97
2022-08-11T05:48:49.676Z,101514.91
2022-08-11T05:51:32.162Z,101469.88
2022-08-11T05:54:29.260Z,101440.34
2022-08-11T05:57:02.764Z,101420.75
2022-08-11T05:59:32.489Z,101389.22
2022-08-11T06:02:04.206Z,101358.72
2022-08-11T06:04:34.018Z,101339.88
2022-08-11T06:07:06.357Z,101317.53
2022-08-11T06:09:39.894Z,101298.91
2022-08-11T06:12:11.167Z,101278.03
2022-08-11T06:14:46.131Z,101264.25
2022-08-11T06:17:17.100Z,101259.56
2022-08-11T06:19:50.286Z,101235.41
2022-08-11T06:22:23.708Z,101218.94
2022-08-11T06:24:59.750Z,101204.31
2022-08-11T06:27:30.822Z,101194.91
2022-08-11T06:30:01.278Z,101187.34
2022-08-11T06:32:32.222Z,101185.97
2022-08-11T06:35:11.026Z,101183.56
2022-08-11T06:37:48.842Z,101195.88
2022-08-11T06:40:34.279Z,101192.50
2022-08-11T06:43:09.907Z,101191.75
2022-08-11T06:45:43.949Z,101195.41
2022-08-11T06:48:20.113Z,101199.09
2022-08-11T06:51:06.423Z,101199.22
2022-08-11T06:53:37.143Z,101206.41
2022-08-11T06:56:22.941Z,101220.44
2022-08-11T06:59:05.861Z,101222.25
2022-08-11T07:01:48.612Z,101236.31
2022-08-11T07:04:35.400Z,101246.06
2022-08-11T07:07:34.282Z,101242.69
2022-08-11T07:10:36.537Z,101251.53
2022-08-11T07:13:43.176Z,101272.59
2022-08-11T07:16:14.036Z,101334.69
2022-08-11T07:18:56.427Z,101353.16
2022-08-11T07:22:00.342Z,101358.56
2022-08-11T07:24:59.401Z,101367.44
2022-08-11T07:27:49.334Z,101399.06
2022-08-11T07:30:21.452Z,101403.63
2022-08-11T07:32:53.676Z,101436.06
2022-08-11T07:35:26.266Z,101455.53
2022-08-11T07:38:01.633Z,101467.00
2022-08-11T07:40:33.010Z,101481.09
2022-08-11T07:43:03.646Z,101544.22
2022-08-11T07:45:49.254Z,101568.84
2022-08-11T07:48:32.381Z,101562.91
2022-08-11T07:51:15.254Z,101558.63
2022-08-11T07:54:03.191Z,101560.53
2022-08-11T07:56:54.503Z,101598.22
2022-08-11T08:00:03.807Z,101632.53
2022-08-11T08:02:43.354Z,101653.69
2022-08-11T08:05:25.400Z,101655.50
2022-08-11T08:08:07.419Z,101657.41
2022-08-11T08:10:49.370Z,101661.00
2022-08-11T08:13:31.458Z,101662.88
2022-08-11T08:16:13.729Z,101661.28
2022-08-11T08:18:45.931Z,101678.00
2022-08-11T08:21:16.954Z,101701.72
2022-08-11T08:23:53.069Z,101712.44
2022-08-11T08:26:38.402Z,101754.53
2022-08-11T08:29:36.772Z,101770.47
2022-08-11T08:32:06.884Z,101783.78
2022-08-11T08:34:40.804Z,101792.69
2022-08-11T08:37:15.920Z,101793.63
2022-08-11T08:40:01.098Z,101799.88
2022-08-11T08:42:32.258Z,101804.38
2022-08-11T08:45:07.108Z,101800.03
2022-08-11T08:47:42.982Z,101802.75
2022-08-11T08:50:19.613Z,101826.50
2022-08-11T08:52:55.442Z,101859.06
2022-08-11T08:55:25.065Z,101863.53
2022-08-11T08:58:00.683Z,101839.03
2022-08-11T09:00:42.261Z,101882.06
2022-08-11T09:03:38.590Z,101881.28
2022-08-11T09:06:04.233Z,101890.09
2022-08-11T09:08:35.217Z,101900.69
2022-08-11T09:11:18.806Z,101898.09
2022-08-11T09:14:04.927Z,101899.84
2022-08-11T09:16:36.746Z,101905.16
2022-08-11T09:19:06.826Z,101907.00
2022-08-11T09:21:49.467Z,101910.53
2022-08-11T09:24:32.808Z,101919.34
2022-08-11T09:27:08.072Z,101927.28
2022-08-11T09:29:38.198Z,101926.41
2022-08-11T09:32:09.056Z,101928.16
2022-08-11T09:34:39.338Z,101922.91
2022-08-11T09:37:54.402Z,101922.94
2022-08-11T09:40:27.385Z,101925.59
2022-08-11T09:43:10.006Z,101925.53
2022-08-11T09:45:40.861Z,101929.09
2022-08-11T09:48:10.446Z,101932.63
2022-08-11T09:50:41.099Z,101930.94
2022-08-11T09:53:36.069Z,101923.91
2022-08-11T09:56:23.442Z,101930.03
2022-08-11T09:58:50.594Z,101908.91
2022-08-11T10:01:29.761Z,101908.91
2022-08-11T10:04:03.022Z,101920.34
2022-08-11T10:06:45.731Z,101923.88
2022-08-11T10:09:22.455Z,101917.72
2022-08-11T10:11:57.985Z,101908.03
2022-08-11T10:14:44.523Z,101916.84
2022-08-11T10:17:15.098Z,101910.59
2022-08-11T10:19:45.433Z,101906.16
2022-08-11T10:22:46.686Z,101898.19
2022-08-11T10:25:37.245Z,101906.03
2022-08-11T10:28:30.853Z,101918.34
2022-08-11T10:31:12.480Z,101912.16
2022-08-11T10:33:58.972Z,101905.09
2022-08-11T10:36:29.694Z,101913.03
2022-08-11T10:38:59.377Z,101904.16
2022-08-11T10:42:06.492Z,101909.34
2022-08-11T10:44:37.300Z,101918.13
2022-08-11T10:47:20.061Z,101916.34
2022-08-11T10:50:10.143Z,101917.09
2022-08-11T10:52:52.462Z,101921.38
2022-08-11T10:55:34.498Z,101925.13
2022-08-11T10:58:19.094Z,101918.75
2022-08-11T11:00:50.575Z,101923.94
2022-08-11T11:03:24.055Z,101918.63
2022-08-11T11:06:27.252Z,101916.78
2022-08-11T11:08:58.931Z,101918.50
2022-08-11T11:11:50.269Z,101919.34
2022-08-11T11:14:35.995Z,101920.09
2022-08-11T11:17:28.773Z,101920.84
2022-08-11T11:20:01.659Z,101914.78
2022-08-11T11:22:41.482Z,101920.97
2022-08-11T11:25:23.364Z,101917.34
2022-08-11T11:28:17.189Z,101915.78
2022-08-11T11:31:03.047Z,101916.47
2022-08-11T11:34:06.037Z,101914.84
2022-08-11T11:36:42.353Z,101915.44
2022-08-11T11:39:12.138Z,101919.00
2022-08-11T11:41:43.657Z,101913.56
2022-08-11T11:44:14.931Z,101924.28
2022-08-11T11:46:48.065Z,101929.53
2022-08-11T11:52:11.290Z,101915.22
2022-08-11T11:54:42.429Z,101919.72
2022-08-11T11:57:24.524Z,101917.91
2022-08-11T12:00:07.192Z,101917.88
2022-08-11T12:02:40.123Z,101919.63
2022-08-11T12:05:11.485Z,101924.00
2022-08-11T12:07:57.017Z,101916.81
2022-08-11T12:10:43.129Z,101910.34
2022-08-11T12:13:25.319Z,101919.13
2022-08-11T12:16:31.306Z,101919.09
2022-08-11T12:18:50.133Z,101911.75
2022-08-11T12:21:22.953Z,101911.84
2022-08-11T12:24:05.681Z,101909.72
2022-08-11T12:27:02.793Z,101902.28
2022-08-11T12:29:43.684Z,101901.22
2022-08-11T12:32:13.930Z,101892.78
2022-08-11T12:34:46.051Z,101896.66
2022-08-11T12:37:16.797Z,101888.28
2022-08-11T12:40:10.773Z,101883.81
2022-08-11T12:43:00.120Z,101886.47
2022-08-11T12:45:33.713Z,101880.38
2022-08-11T12:48:59.255Z,101869.00
2022-08-11T12:51:32.707Z,101872.03
2022-08-11T12:54:26.502Z,101864.78
2022-08-11T12:57:14.837Z,101862.41
2022-08-11T13:00:06.841Z,101866.06
2022-08-11T13:02:49.597Z,101861.25
2022-08-11T13:05:19.272Z,101854.63
2022-08-11T13:07:52.419Z,101850.00
2022-08-11T13:10:42.647Z,101850.59
2022-08-11T13:13:52.673Z,101846.88
2022-08-11T13:15:59.582Z,101843.69
2022-08-11T13:18:29.393Z,101833.91
2022-08-11T13:21:00.153Z,101840.09
2022-08-11T13:23:32.655Z,101842.53
2022-08-11T13:26:02.163Z,101840.75
2022-08-11T13:28:31.711Z,101844.59
2022-08-11T13:31:16.250Z,101834.03
2022-08-11T13:33:49.857Z,101827.94
2022-08-11T13:36:22.426Z,101827.97
2022-08-11T13:38:58.400Z,101820.47
2022-08-11T13:41:41.855Z,101827.91
2022-08-11T13:44:15.851Z,101816.38
2022-08-11T13:46:47.029Z,101819.19
2022-08-11T13:49:19.258Z,101816.88
2022-08-11T13:51:48.898Z,101814.16
2022-08-11T13:54:23.508Z,101805.41
2022-08-11T13:56:56.321Z,101812.78
2022-08-11T13:59:29.925Z,101806.81
2022-08-11T14:02:28.139Z,101806.88
2022-08-11T14:04:57.144Z,101799.34
2022-08-11T14:07:28.688Z,101797.22
2022-08-11T14:10:02.138Z,101799.41
2022-08-11T14:12:45.606Z,101793.31
2022-08-11T14:15:19.935Z,101790.41
2022-08-11T14:17:53.292Z,101788.34
2022-08-11T14:20:38.483Z,101789.44
2022-08-11T14:23:08.057Z,101797.97
2022-08-11T14:26:01.930Z,101787.50
2022-08-11T14:28:37.811Z,101792.56
2022-08-11T14:31:10.205Z,101789.81
2022-08-11T14:33:58.692Z,101778.22
2022-08-11T14:36:34.011Z,101779.34
2022-08-11T14:39:06.637Z,101773.25
2022-08-11T14:42:10.425Z,101775.19
2022-08-11T14:44:56.037Z,101777.84
2022-08-11T14:47:26.300Z,101772.88
2022-08-11T14:50:09.759Z,101772.28
2022-08-11T14:52:45.853Z,101783.81
2022-08-11T14:55:28.570Z,101776.84
2022-08-11T14:58:01.779Z,101768.38
2022-08-11T15:00:31.884Z,101769.97
2022-08-11T15:03:13.213Z,101767.19
2022-08-11T15:05:56.765Z,101766.91
2022-08-11T15:08:42.040Z,101771.03
2022-08-11T15:11:32.973Z,101773.19
2022-08-11T15:14:06.939Z,101766.63
2022-08-11T15:16:50.206Z,101763.19
2022-08-11T15:19:21.769Z,101763.44
2022-08-11T15:22:04.221Z,101758.63
2022-08-11T15:24:35.550Z,101756.19
2022-08-11T15:27:20.006Z,101763.47
2022-08-11T15:30:06.580Z,101755.75
2022-08-11T15:32:49.077Z,101751.47
2022-08-11T15:35:33.684Z,101749.00
2022-08-11T15:38:09.738Z,101748.28
2022-08-11T15:40:54.117Z,101745.69
2022-08-11T15:43:39.146Z,101745.94
2022-08-11T15:46:14.941Z,101739.09
2022-08-11T15:48:48.405Z,101739.06
2022-08-11T15:51:25.096Z,101732.88
2022-08-11T15:53:57.292Z,101737.06
2022-08-11T15:56:27.861Z,101737.97
2022-08-11T15:59:41.499Z,101735.53
2022-08-11T16:02:27.063Z,101728.69
2022-08-11T16:04:57.161Z,101725.19
2022-08-11T16:07:29.676Z,101734.06
2022-08-11T16:10:04.879Z,101729.66
2022-08-11T16:12:36.238Z,101728.66
2022-08-11T16:15:20.833Z,101731.22
2022-08-11T16:17:56.022Z,101731.69
2022-08-11T16:20:27.487Z,101736.06
2022-08-11T16:23:02.517Z,101729.03
2022-08-11T16:27:01.594Z,101725.63
2022-08-11T16:28:23.478Z,101725.75
2022-08-11T16:30:53.106Z,101723.13
2022-08-11T16:33:50.062Z,101723.38
2022-08-11T16:36:29.713Z,101713.84
2022-08-11T16:38:59.930Z,101715.66
2022-08-11T16:41:45.717Z,101716.56
2022-08-11T16:44:37.084Z,101719.38
2022-08-11T16:47:08.880Z,101723.91
2022-08-11T16:49:52.282Z,101717.78
2022-08-11T16:52:23.217Z,101720.50
2022-08-11T16:54:53.141Z,101717.06
2022-08-11T16:57:38.458Z,101714.50
2022-08-11T17:00:12.537Z,101706.63
2022-08-11T17:02:58.834Z,101711.06
2022-08-11T17:05:53.822Z,101708.28
2022-08-11T17:08:41.257Z,101702.09
2022-08-11T17:11:36.086Z,101702.34
2022-08-11T17:14:10.719Z,101701.59
2022-08-11T17:16:41.634Z,101698.16
2022-08-11T17:19:14.307Z,101695.66
2022-08-11T17:22:01.575Z,101693.94
2022-08-11T17:24:32.474Z,101695.75
2022-08-11T17:27:03.557Z,101688.72
2022-08-11T17:29:53.686Z,101692.31
2022-08-11T17:32:56.914Z,101685.31
2022-08-11T17:35:31.725Z,101691.53
2022-08-11T17:38:06.737Z,101694.19
2022-08-11T17:40:38.934Z,101688.94
2022-08-11T17:43:24.110Z,101689.84
2022-08-11T17:46:06.480Z,101682.88
2022-08-11T17:48:47.818Z,101687.28
2022-08-11T17:51:34.151Z,101696.94
2022-08-11T17:54:24.400Z,101689.91
2022-08-11T17:57:07.900Z,101690.81
2022-08-11T17:59:57.091Z,101697.84
2022-08-11T18:02:41.990Z,101690.84
2022-08-11T18:05:14.168Z,101690.84
2022-08-11T18:07:56.981Z,101687.34
2022-08-11T18:10:41.854Z,101690.88
2022-08-11T18:13:24.599Z,101691.78
2022-08-11T18:16:06.947Z,101689.09
2022-08-11T18:18:49.128Z,101686.47
2022-08-11T18:21:32.794Z,101682.06
2022-08-11T18:24:20.512Z,101676.81
2022-08-11T18:27:06.846Z,101684.69
2022-08-11T18:29:50.175Z,101682.91
2022-08-11T18:32:49.222Z,101679.41
2022-08-11T18:35:33.647Z,101667.09
2022-08-11T18:38:17.051Z,101665.31
2022-08-11T18:41:00.015Z,101666.16
2022-08-11T18:43:46.145Z,101662.59
2022-08-11T18:46:30.974Z,101654.66
2022-08-11T18:49:18.354Z,101653.75
2022-08-11T18:52:02.679Z,101644.91
2022-08-11T18:54:44.625Z,101646.63
2022-08-11T18:57:28.849Z,101652.72
2022-08-11T19:00:20.676Z,101641.28
2022-08-11T19:03:02.893Z,101646.50
2022-08-11T19:06:32.301Z,101653.44
2022-08-11T19:08:53.266Z,101644.59
2022-08-11T19:11:42.464Z,101642.78
2022-08-11T19:14:25.907Z,101645.34
2022-08-11T19:17:11.199Z,101647.94
2022-08-11T19:19:53.796Z,101651.38
2022-08-11T19:22:36.583Z,101650.44
2022-08-11T19:25:24.821Z,101650.34
2022-08-11T19:28:08.830Z,101652.03
2022-08-11T19:30:51.415Z,101663.28
2022-08-11T19:34:00.447Z,101664.09
2022-08-11T19:36:38.969Z,101657.88
2022-08-11T19:39:21.137Z,101655.19
2022-08-11T19:42:03.234Z,101664.75
2022-08-11T19:44:45.931Z,101664.63
2022-08-11T19:47:28.361Z,101654.94
2022-08-11T19:50:16.585Z,101654.78
2022-08-11T19:53:02.389Z,101667.84
2022-08-11T19:55:59.187Z,101655.50
2022-08-11T19:58:41.267Z,101655.38
2022-08-11T20:01:23.313Z,101655.22
2022-08-11T20:04:05.623Z,101653.34
2022-08-11T20:06:51.115Z,101651.56
2022-08-11T20:10:05.304Z,101641.91
2022-08-11T20:12:36.978Z,101636.50
2022-08-11T20:15:20.039Z,101630.25
2022-08-11T20:18:02.279Z,101619.66
2022-08-11T20:20:44.679Z,101617.91
2022-08-11T20:23:31.804Z,101611.63
2022-08-11T20:26:30.325Z,101607.16
2022-08-11T20:29:14.256Z,101608.75
2022-08-11T20:31:56.884Z,101597.22
2022-08-11T20:34:39.568Z,101588.38
2022-08-11T20:37:22.296Z,101577.84
2022-08-11T20:40:08.210Z,101580.38
2022-08-11T20:42:50.460Z,101573.28
2022-08-11T20:45:33.323Z,101567.06
2022-08-11T20:48:16.437Z,101554.75
2022-08-11T20:51:01.664Z,101545.94
2022-08-11T20:53:49.401Z,101534.47
2022-08-11T20:56:36.004Z,101523.03
2022-08-11T20:59:21.454Z,101518.63
2022-08-11T21:02:04.031Z,101512.50
2022-08-11T21:04:54.406Z,101502.72
2022-08-11T21:07:39.295Z,101493.88
2022-08-11T21:10:25.897Z,101479.81
2022-08-11T21:13:26.010Z,101480.66
2022-08-11T21:16:24.674Z,101464.03
2022-08-11T21:19:10.244Z,101453.41
2022-08-11T21:21:53.803Z,101447.25
2022-08-11T21:24:37.289Z,101438.53
2022-08-11T21:27:26.366Z,101418.44
2022-08-11T21:30:11.372Z,101414.94
2022-08-11T21:32:54.290Z,101405.31
2022-08-11T21:35:36.431Z,101396.50
2022-08-11T21:38:27.568Z,101376.34
2022-08-11T21:41:10.053Z,101361.47
2022-08-11T21:43:53.936Z,101351.03
2022-08-11T21:46:39.482Z,101339.72
2022-08-11T21:49:22.422Z,101328.22
2022-08-11T21:52:04.401Z,101322.09
2022-08-11T21:54:46.445Z,101310.69
2022-08-11T21:57:30.388Z,101292.28
2022-08-11T22:00:13.368Z,101276.63
2022-08-11T22:02:59.631Z,101263.72
2022-08-11T22:05:42.609Z,101266.34
2022-08-11T22:08:24.769Z,101264.69
2022-08-11T22:11:06.819Z,101262.91
2022-08-11T22:14:05.821Z,101250.69
2022-08-11T22:16:49.850Z,101240.19
2022-08-11T22:19:35.116Z,101226.97
2022-08-11T22:22:17.954Z,101198.97
2022-08-11T22:25:00.167Z,101191.94
2022-08-11T22:27:42.266Z,101184.06
2022-08-11T22:30:25.905Z,101171.78
2022-08-11T22:33:08.600Z,101153.41
2022-08-11T22:35:54.128Z,101132.47
2022-08-11T22:38:36.328Z,101133.31
2022-08-11T22:41:19.302Z,101115.84
2022-08-11T22:44:01.304Z,101116.69
2022-08-11T22:46:45.014Z,101103.59
2022-08-11T22:49:27.874Z,101095.69
2022-08-11T22:52:17.853Z,101091.34
2022-08-11T22:55:01.252Z,101090.41
2022-08-11T22:58:00.563Z,101090.28
2022-08-11T23:00:43.857Z,101083.38
2022-08-11T23:03:38.015Z,101077.19
2022-08-11T23:06:20.962Z,101078.88
2022-08-11T23:09:06.151Z,101078.78
2022-08-11T23:12:08.014Z,101074.28
2022-08-11T23:14:52.289Z,101070.78
2022-08-11T23:17:34.502Z,101059.38
2022-08-11T23:20:36.266Z,101072.41
2022-08-11T23:23:19.072Z,101069.66
2022-08-11T23:26:05.709Z,101048.72
2022-08-11T23:28:48.471Z,101047.78
2022-08-11T23:31:43.021Z,101042.47
2022-08-11T23:35:03.045Z,101030.25
2022-08-11T23:37:37.229Z,101022.44
2022-08-11T23:40:20.237Z,101024.88
2022-08-11T23:43:07.730Z,101019.63
2022-08-11T23:45:49.828Z,101016.06
2022-08-11T23:48:32.127Z,101010.81
2022-08-11T23:51:14.551Z,101010.72
2022-08-11T23:53:57.018Z,100997.59
2022-08-11T23:56:39.429Z,100983.66
2022-08-11T23:59:25.778Z,100983.63
